sensor_id;sensor_type;location;lat;lon;timestamp;temperature;humidity
6186;DHT22;3126;52.738;8.316;2023-06-22T00:01:20;17.70;95.80
6186;DHT22;3126;52.738;8.316;2023-06-22T00:06:22;17.70;95.80
6186;DHT22;3126;52.738;8.316;2023-06-22T00:11:23;17.70;95.10
6186;DHT22;3126;52.738;8.316;2023-06-22T00:16:23;17.60;95.30
6186;DHT22;3126;52.738;8.316;2023-06-22T00:21:24;17.60;95.20
6186;DHT22;3126;52.738;8.316;2023-06-22T00:26:24;17.60;95.70
6186;DHT22;3126;52.738;8.316;2023-06-22T00:31:25;17.60;96.20
6186;DHT22;3126;52.738;8.316;2023-06-22T00:36:25;17.60;97.00
6186;DHT22;3126;52.738;8.316;2023-06-22T00:41:26;17.50;96.80
6186;DHT22;3126;52.738;8.316;2023-06-22T00:56:32;17.80;97.00
6186;DHT22;3126;52.738;8.316;2023-06-22T01:01:32;17.40;97.80
6186;DHT22;3126;52.738;8.316;2023-06-22T01:06:40;17.40;98.10
6186;DHT22;3126;52.738;8.316;2023-06-22T01:11:50;17.30;98.20
6186;DHT22;3126;52.738;8.316;2023-06-22T01:16:54;17.20;98.30
6186;DHT22;3126;52.738;8.316;2023-06-22T01:21:56;17.10;98.90
6186;DHT22;3126;52.738;8.316;2023-06-22T01:32:30;17.00;99.30
6186;DHT22;3126;52.738;8.316;2023-06-22T01:37:33;16.90;99.60
6186;DHT22;3126;52.738;8.316;2023-06-22T01:42:35;16.80;99.90
6186;DHT22;3126;52.738;8.316;2023-06-22T01:47:36;16.80;99.90
6186;DHT22;3126;52.738;8.316;2023-06-22T05:23:47;16.80;99.90
6186;DHT22;3126;52.738;8.316;2023-06-22T05:48:52;18.20;93.60
6186;DHT22;3126;52.738;8.316;2023-06-22T05:53:53;20.40;83.60
6186;DHT22;3126;52.738;8.316;2023-06-22T05:58:53;20.80;82.60
6186;DHT22;3126;52.738;8.316;2023-06-22T06:03:54;21.10;80.90
6186;DHT22;3126;52.738;8.316;2023-06-22T06:08:55;21.10;80.50
6186;DHT22;3126;52.738;8.316;2023-06-22T06:13:55;21.00;79.60
6186;DHT22;3126;52.738;8.316;2023-06-22T06:18:56;21.10;79.50
6186;DHT22;3126;52.738;8.316;2023-06-22T06:49:05;23.60;70.40
6186;DHT22;3126;52.738;8.316;2023-06-22T06:54:05;23.40;69.20
6186;DHT22;3126;52.738;8.316;2023-06-22T06:59:06;23.30;70.00
6186;DHT22;3126;52.738;8.316;2023-06-22T14:00:50;26.20;63.90
6186;DHT22;3126;52.738;8.316;2023-06-22T14:05:51;25.50;70.30
6186;DHT22;3126;52.738;8.316;2023-06-22T14:10:54;25.40;72.00
6186;DHT22;3126;52.738;8.316;2023-06-22T14:15:55;25.20;73.30
6186;DHT22;3126;52.738;8.316;2023-06-22T14:20:55;25.00;73.80
6186;DHT22;3126;52.738;8.316;2023-06-22T14:40:59;24.90;73.80
6186;DHT22;3126;52.738;8.316;2023-06-22T14:46:00;24.40;80.00
6186;DHT22;3126;52.738;8.316;2023-06-22T14:51:00;24.40;82.60
6186;DHT22;3126;52.738;8.316;2023-06-22T14:56:01;24.30;84.40
6186;DHT22;3126;52.738;8.316;2023-06-22T15:11:05;24.30;83.70
6186;DHT22;3126;52.738;8.316;2023-06-22T15:36:10;24.10;83.20
6186;DHT22;3126;52.738;8.316;2023-06-22T16:06:17;23.80;84.90
6186;DHT22;3126;52.738;8.316;2023-06-22T16:11:17;23.40;85.70
6186;DHT22;3126;52.738;8.316;2023-06-22T16:21:19;23.10;87.00
6186;DHT22;3126;52.738;8.316;2023-06-22T16:26:19;23.10;88.60
6186;DHT22;3126;52.738;8.316;2023-06-22T16:31:20;22.90;88.20
6186;DHT22;3126;52.738;8.316;2023-06-22T16:36:20;22.80;88.70
6186;DHT22;3126;52.738;8.316;2023-06-22T16:41:21;22.60;88.60
6186;DHT22;3126;52.738;8.316;2023-06-22T16:46:22;22.40;88.50
6186;DHT22;3126;52.738;8.316;2023-06-22T16:51:23;22.40;89.00
6186;DHT22;3126;52.738;8.316;2023-06-22T16:56:25;22.50;88.60
6186;DHT22;3126;52.738;8.316;2023-06-22T17:01:26;22.50;88.60
6186;DHT22;3126;52.738;8.316;2023-06-22T17:06:28;22.60;88.30
6186;DHT22;3126;52.738;8.316;2023-06-22T17:11:29;22.50;87.80
6186;DHT22;3126;52.738;8.316;2023-06-22T17:16:31;22.30;88.90
6186;DHT22;3126;52.738;8.316;2023-06-22T17:46:43;22.20;89.20
6186;DHT22;3126;52.738;8.316;2023-06-22T17:51:44;21.60;91.30
6186;DHT22;3126;52.738;8.316;2023-06-22T17:56:51;21.50;91.30
6186;DHT22;3126;52.738;8.316;2023-06-22T18:01:52;21.50;92.70
6186;DHT22;3126;52.738;8.316;2023-06-22T18:16:59;21.40;94.40
6186;DHT22;3126;52.738;8.316;2023-06-22T18:22:00;20.80;99.70
6186;DHT22;3126;52.738;8.316;2023-06-22T18:27:01;21.10;99.90
6186;DHT22;3126;52.738;8.316;2023-06-22T18:32:02;20.60;99.90
6186;DHT22;3126;52.738;8.316;2023-06-22T18:37:06;20.50;99.90
6186;DHT22;3126;52.738;8.316;2023-06-22T18:42:09;20.50;99.90
6186;DHT22;3126;52.738;8.316;2023-06-22T18:52:14;20.40;99.90
6186;DHT22;3126;52.738;8.316;2023-06-22T18:57:25;20.30;99.90
6186;DHT22;3126;52.738;8.316;2023-06-22T19:12:54;20.00;99.90
6186;DHT22;3126;52.738;8.316;2023-06-22T19:18:00;19.90;99.90
6186;DHT22;3126;52.738;8.316;2023-06-22T19:23:01;19.90;99.90
6186;DHT22;3126;52.738;8.316;2023-06-22T19:28:05;19.90;99.90
6186;DHT22;3126;52.738;8.316;2023-06-22T19:33:14;19.80;99.90
6186;DHT22;3126;52.738;8.316;2023-06-22T19:38:19;19.80;99.90
6186;DHT22;3126;52.738;8.316;2023-06-22T19:43:19;19.80;99.90
6186;DHT22;3126;52.738;8.316;2023-06-22T19:48:24;19.80;99.90
6186;DHT22;3126;52.738;8.316;2023-06-22T19:53:25;19.80;99.90
6186;DHT22;3126;52.738;8.316;2023-06-22T19:58:25;19.80;99.90
6186;DHT22;3126;52.738;8.316;2023-06-22T20:29:31;19.70;99.90
6186;DHT22;3126;52.738;8.316;2023-06-22T20:34:45;19.70;99.90
6186;DHT22;3126;52.738;8.316;2023-06-22T20:39:47;19.60;99.90
6186;DHT22;3126;52.738;8.316;2023-06-22T20:44:47;19.50;99.90
6186;DHT22;3126;52.738;8.316;2023-06-22T20:49:50;19.40;99.90
6186;DHT22;3126;52.738;8.316;2023-06-22T20:54:50;19.30;99.90
6186;DHT22;3126;52.738;8.316;2023-06-22T20:59:52;19.10;99.90
6186;DHT22;3126;52.738;8.316;2023-06-22T21:04:53;19.00;99.90
6186;DHT22;3126;52.738;8.316;2023-06-22T21:09:55;18.90;99.90
6186;DHT22;3126;52.738;8.316;2023-06-22T21:14:55;18.90;99.90
6186;DHT22;3126;52.738;8.316;2023-06-22T21:19:56;18.80;99.90
6186;DHT22;3126;52.738;8.316;2023-06-22T21:25:11;18.70;99.90
6186;DHT22;3126;52.738;8.316;2023-06-22T21:30:12;18.70;99.90
6186;DHT22;3126;52.738;8.316;2023-06-22T21:35:13;18.60;99.90
6186;DHT22;3126;52.738;8.316;2023-06-22T21:40:14;18.60;99.90
6186;DHT22;3126;52.738;8.316;2023-06-22T21:45:14;18.60;99.90
6186;DHT22;3126;52.738;8.316;2023-06-22T21:50:15;18.60;99.90
6186;DHT22;3126;52.738;8.316;2023-06-22T21:55:16;18.50;99.90
6186;DHT22;3126;52.738;8.316;2023-06-22T22:00:16;18.50;99.90
6186;DHT22;3126;52.738;8.316;2023-06-22T22:05:17;18.40;99.90
6186;DHT22;3126;52.738;8.316;2023-06-22T22:10:18;18.40;99.90
6186;DHT22;3126;52.738;8.316;2023-06-22T22:15:19;18.30;99.90
6186;DHT22;3126;52.738;8.316;2023-06-22T22:20:20;18.30;99.90
6186;DHT22;3126;52.738;8.316;2023-06-22T22:25:21;18.20;99.90
6186;DHT22;3126;52.738;8.316;2023-06-22T22:30:25;18.10;99.90
6186;DHT22;3126;52.738;8.316;2023-06-22T22:35:26;18.00;99.90
6186;DHT22;3126;52.738;8.316;2023-06-22T22:40:26;17.90;99.90
6186;DHT22;3126;52.738;8.316;2023-06-22T22:45:27;17.80;99.90
6186;DHT22;3126;52.738;8.316;2023-06-22T22:50:28;17.70;99.90
6186;DHT22;3126;52.738;8.316;2023-06-22T22:55:28;17.50;99.90
6186;DHT22;3126;52.738;8.316;2023-06-22T23:00:29;17.40;99.90
6186;DHT22;3126;52.738;8.316;2023-06-22T23:05:29;17.40;99.90
6186;DHT22;3126;52.738;8.316;2023-06-22T23:10:30;17.40;99.90
6186;DHT22;3126;52.738;8.316;2023-06-22T23:15:30;17.30;99.90
6186;DHT22;3126;52.738;8.316;2023-06-22T23:20:31;17.40;99.90
6186;DHT22;3126;52.738;8.316;2023-06-22T23:25:32;17.30;99.90
6186;DHT22;3126;52.738;8.316;2023-06-22T23:30:34;17.30;99.90
6186;DHT22;3126;52.738;8.316;2023-06-22T23:35:37;17.30;99.90
6186;DHT22;3126;52.738;8.316;2023-06-22T23:40:38;17.30;99.90
6186;DHT22;3126;52.738;8.316;2023-06-22T23:45:40;17.20;99.90
6186;DHT22;3126;52.738;8.316;2023-06-22T23:50:40;17.20;99.90
6186;DHT22;3126;52.738;8.316;2023-06-22T23:55:41;17.10;99.90
